This is the latest recevied weather packets stored in our database for station/object N5ZKK. If no packets are shown the sender has not sent any weather packets the latest 10 day(s).
| Time | Temp. | Humidity | Pressure | Rain* | Wind** | Luminosity | Snow |
|---|---|---|---|---|---|---|---|
| 1777257921 | 22.78° C | 97% | 1010.6 hPa | 0 mm | - | - | - |
| 1777256116 | 23.33° C | 94% | 1010.9 hPa | 0 mm | - | - | - |
| 1777253120 | 24.44° C | 89% | 1010.1 hPa | 0 mm | - | - | - |
| 1777250749 | 25.56° C | 86% | 1009.1 hPa | 0 mm | - | - | - |
| 1777248918 | 26.11° C | 84% | 1009.6 hPa | 0 mm | - | - | - |
| 1777246527 | 27.22° C | 79% | 1010.3 hPa | 0 mm | - | - | - |
| 1777244773 | 27.78° C | 79% | 1010.1 hPa | 0 mm | - | - | - |
| 1777242323 | 27.22° C | 84% | 1010.3 hPa | 0 mm | - | - | - |
| 1777235131 | 23.89° C | 94% | 1011.9 hPa | 0 mm | - | - | - |
| 1777233917 | 23.33° C | 97% | 1012 hPa | 0 mm | - | - | - |
| 1777232722 | 23.33° C | 95% | 1011.9 hPa | 0 mm | - | - | - |
| 1777231526 | 23.89° C | 93% | 1012.3 hPa | 0 mm | - | - | - |
| 1777229117 | 24.44° C | 91% | 1012.4 hPa | 0 mm | - | - | - |
| 1777228539 | 23.89° C | 93% | 1012.5 hPa | 0 mm | - | - | - |
| 1777227324 | 23.89° C | 93% | 1012.6 hPa | 0 mm | - | - | - |
| 1777221327 | 22.78° C | 97% | 1012.9 hPa | 0 mm | - | - | - |
| 1777211127 | 21.67° C | 99% | 1012 hPa | 0 mm | - | - | - |
| 1777207521 | 21.67° C | 99% | 1011.2 hPa | 0 mm | - | - | - |
| 1777203937 | 21.67° C | 99% | 1010.3 hPa | 0 mm | - | - | - |
| 1777196126 | 22.22° C | 98% | 1009.8 hPa | 0 mm | - | - | - |
| 1777193120 | 21.67° C | 98% | 1009.9 hPa | 0 mm | - | - | - |
| 1777191924 | 21.67° C | 98% | 1009.9 hPa | 0 mm | - | - | - |
| 1777184733 | 22.22° C | 93% | 1010.5 hPa | 0 mm | - | - | - |
| 1777182916 | 22.22° C | 93% | 1010.5 hPa | 0 mm | - | - | - |
| 1777179329 | 22.78° C | 90% | 1010.1 hPa | 0 mm | - | - | - |
* Rain latest hour (hover to see other rain measurements)
** Current wind speed in m/s (hover to see current wind gust speed)